createdAt,value
2023-07-03T00:00:05.523Z,40.0
2023-07-03T00:02:02.589Z,40.0
2023-07-03T00:04:02.538Z,41.0
2023-07-03T00:06:02.670Z,40.0
2023-07-03T00:08:03.083Z,38.0
2023-07-03T00:10:04.701Z,38.0
2023-07-03T00:12:02.689Z,37.0
2023-07-03T00:14:02.485Z,36.0
2023-07-03T00:16:04.207Z,39.0
2023-07-03T00:18:03.300Z,37.0
2023-07-03T00:20:02.841Z,35.0
2023-07-03T00:22:02.508Z,34.0
2023-07-03T00:24:02.680Z,36.0
2023-07-03T00:26:02.565Z,36.0
2023-07-03T00:28:02.518Z,36.0
2023-07-03T00:30:03.468Z,35.0
2023-07-03T00:32:02.844Z,35.0
2023-07-03T00:34:03.195Z,33.0
2023-07-03T00:36:02.470Z,34.0
2023-07-03T00:38:03.549Z,34.0
2023-07-03T00:40:03.699Z,37.0
2023-07-03T00:42:03.448Z,37.0
2023-07-03T00:44:02.576Z,35.0
2023-07-03T00:46:03.620Z,37.0
2023-07-03T00:48:02.536Z,35.0
2023-07-03T00:50:02.814Z,35.0
2023-07-03T00:52:03.594Z,36.0
2023-07-03T00:54:03.352Z,36.0
2023-07-03T00:56:04.702Z,35.0
2023-07-03T00:58:03.036Z,36.0
2023-07-03T01:00:05.158Z,35.0
2023-07-03T01:02:09.626Z,36.0
2023-07-03T01:04:11.281Z,37.0
2023-07-03T01:06:05.918Z,34.0
2023-07-03T01:08:02.680Z,33.0
2023-07-03T01:10:08.560Z,33.0
2023-07-03T01:12:05.107Z,33.0
2023-07-03T01:14:04.803Z,35.0
2023-07-03T01:16:05.304Z,30.0
2023-07-03T01:18:06.353Z,32.0
2023-07-03T01:20:05.238Z,32.0
2023-07-03T01:22:09.695Z,33.0
2023-07-03T01:24:11.804Z,35.0
2023-07-03T01:26:05.832Z,37.0
2023-07-03T01:28:04.678Z,37.0
2023-07-03T01:30:07.060Z,37.0
2023-07-03T01:32:05.891Z,37.0
2023-07-03T01:34:03.834Z,38.0
2023-07-03T01:36:04.329Z,35.0
2023-07-03T01:38:04.718Z,34.0
2023-07-03T01:40:04.061Z,34.0
2023-07-03T01:42:03.102Z,34.0
2023-07-03T01:44:02.612Z,35.0
2023-07-03T01:46:03.214Z,36.0
2023-07-03T01:48:02.533Z,36.0
2023-07-03T01:50:04.429Z,39.0
2023-07-03T01:52:11.791Z,38.0
2023-07-03T01:54:10.583Z,36.0
2023-07-03T01:56:11.194Z,38.0
2023-07-03T01:58:08.611Z,41.0
2023-07-03T02:00:04.764Z,41.0
2023-07-03T02:02:08.261Z,43.0
2023-07-03T02:04:08.110Z,42.0
2023-07-03T02:06:08.888Z,41.0
2023-07-03T02:08:03.953Z,42.0
2023-07-03T02:10:03.926Z,43.0
2023-07-03T02:12:05.208Z,43.0
2023-07-03T02:14:03.437Z,44.0
2023-07-03T02:16:03.251Z,42.0
2023-07-03T02:18:03.553Z,41.0
2023-07-03T02:20:03.657Z,44.0
2023-07-03T02:22:03.845Z,44.0
2023-07-03T02:24:04.664Z,43.0
2023-07-03T02:26:02.570Z,43.0
2023-07-03T02:28:02.664Z,42.0
2023-07-03T02:30:02.713Z,43.0
2023-07-03T02:32:02.706Z,42.0
2023-07-03T02:34:02.475Z,43.0
2023-07-03T02:36:03.859Z,43.0
2023-07-03T02:38:02.803Z,45.0
2023-07-03T02:40:05.744Z,43.0
2023-07-03T02:42:02.834Z,43.0
2023-07-03T02:44:02.589Z,43.0
2023-07-03T02:46:03.980Z,43.0
2023-07-03T02:48:02.513Z,45.0
2023-07-03T02:50:03.962Z,45.0
2023-07-03T02:52:02.486Z,45.0
2023-07-03T02:54:04.384Z,45.0
2023-07-03T02:56:03.195Z,45.0
2023-07-03T02:58:02.537Z,45.0
2023-07-03T03:00:02.877Z,46.0
2023-07-03T03:02:03.200Z,47.0
2023-07-03T03:04:03.244Z,47.0
2023-07-03T03:06:03.657Z,48.0
2023-07-03T03:08:02.545Z,48.0
2023-07-03T03:10:02.621Z,48.0
2023-07-03T03:12:02.454Z,47.0
2023-07-03T03:14:04.019Z,48.0
2023-07-03T03:16:02.446Z,49.0
2023-07-03T03:18:02.755Z,49.0
2023-07-03T03:20:03.967Z,48.0
2023-07-03T03:22:02.463Z,49.0
2023-07-03T03:24:03.384Z,49.0
2023-07-03T03:26:02.735Z,49.0
2023-07-03T03:28:02.513Z,49.0
2023-07-03T03:30:04.433Z,48.0
2023-07-03T03:32:03.488Z,48.0
2023-07-03T03:34:02.443Z,49.0
2023-07-03T03:36:03.222Z,49.0
2023-07-03T03:38:02.522Z,49.0
2023-07-03T03:40:04.344Z,49.0
2023-07-03T03:42:03.285Z,51.0
2023-07-03T03:44:02.614Z,50.0
2023-07-03T03:46:03.989Z,50.0
2023-07-03T03:48:02.528Z,51.0
2023-07-03T03:50:03.675Z,50.0
2023-07-03T03:52:02.544Z,52.0
2023-07-03T03:54:03.500Z,51.0
2023-07-03T03:56:02.644Z,51.0
2023-07-03T03:58:02.663Z,51.0
2023-07-03T04:00:04.209Z,52.0
2023-07-03T04:02:02.532Z,51.0
2023-07-03T04:04:02.601Z,51.0
2023-07-03T04:06:02.742Z,51.0
2023-07-03T04:08:02.529Z,51.0
2023-07-03T04:10:04.500Z,52.0
2023-07-03T04:12:02.987Z,53.0
2023-07-03T04:14:04.397Z,54.0
2023-07-03T04:16:04.713Z,54.0
2023-07-03T04:18:02.843Z,56.0
2023-07-03T04:20:06.982Z,57.0
2023-07-03T04:22:02.630Z,56.0
2023-07-03T04:24:02.480Z,57.0
2023-07-03T04:26:03.357Z,57.0
2023-07-03T04:28:02.823Z,57.0
2023-07-03T04:30:04.996Z,57.0
2023-07-03T04:32:02.998Z,57.0
2023-07-03T04:34:03.401Z,56.0
2023-07-03T04:36:03.098Z,58.0
2023-07-03T04:38:02.703Z,57.0
2023-07-03T04:40:03.986Z,58.0
2023-07-03T04:42:03.989Z,59.0
2023-07-03T04:44:03.264Z,59.0
2023-07-03T04:46:04.427Z,59.0
2023-07-03T04:48:02.454Z,59.0
2023-07-03T04:50:03.433Z,60.0
2023-07-03T04:52:04.112Z,60.0
2023-07-03T04:54:04.126Z,61.0
2023-07-03T04:56:02.551Z,62.0
2023-07-03T04:58:05.090Z,63.0
2023-07-03T05:00:04.741Z,62.0
2023-07-03T05:02:02.874Z,62.0
2023-07-03T05:04:03.107Z,63.0
2023-07-03T05:06:02.669Z,63.0
2023-07-03T05:08:02.485Z,63.0
2023-07-03T05:10:02.677Z,63.0
2023-07-03T05:12:02.485Z,63.0
2023-07-03T05:14:03.289Z,64.0
2023-07-03T05:16:03.336Z,64.0
2023-07-03T05:18:03.407Z,64.0
2023-07-03T05:20:06.644Z,64.0
2023-07-03T05:22:02.455Z,64.0
2023-07-03T05:24:03.577Z,64.0
2023-07-03T05:26:03.176Z,64.0
2023-07-03T05:28:02.659Z,65.0
2023-07-03T05:30:04.195Z,65.0
2023-07-03T05:32:03.723Z,65.0
2023-07-03T05:34:03.030Z,65.0
2023-07-03T05:36:03.317Z,64.0
2023-07-03T05:38:03.344Z,65.0
2023-07-03T05:40:04.379Z,65.0
2023-07-03T05:42:02.671Z,66.0
2023-07-03T05:44:02.502Z,66.0
2023-07-03T05:46:02.533Z,66.0
2023-07-03T05:48:02.780Z,65.0
2023-07-03T05:50:03.307Z,65.0
2023-07-03T05:52:03.169Z,65.0
2023-07-03T05:54:03.209Z,65.0
2023-07-03T05:56:02.965Z,65.0
2023-07-03T05:58:03.784Z,65.0
2023-07-03T06:00:06.382Z,66.0
2023-07-03T06:02:05.091Z,65.0
2023-07-03T06:04:03.778Z,66.0
2023-07-03T06:06:05.229Z,66.0
2023-07-03T06:08:02.527Z,66.0
2023-07-03T06:10:02.715Z,66.0
2023-07-03T06:12:03.170Z,66.0
2023-07-03T06:14:03.328Z,66.0
2023-07-03T06:16:03.213Z,66.0
2023-07-03T06:18:03.535Z,66.0
2023-07-03T06:20:03.428Z,67.0
2023-07-03T06:22:02.452Z,67.0
2023-07-03T06:24:03.399Z,67.0
2023-07-03T06:26:02.500Z,67.0
2023-07-03T06:28:03.010Z,67.0
2023-07-03T06:30:04.038Z,67.0
2023-07-03T06:32:02.521Z,67.0
2023-07-03T06:34:03.839Z,68.0
2023-07-03T06:36:02.466Z,67.0
2023-07-03T06:38:03.635Z,67.0
2023-07-03T06:40:05.609Z,67.0
2023-07-03T06:42:04.761Z,68.0
2023-07-03T06:44:03.742Z,68.0
2023-07-03T06:46:02.455Z,68.0
2023-07-03T06:48:02.504Z,68.0
2023-07-03T06:50:02.864Z,69.0
2023-07-03T06:52:03.513Z,68.0
2023-07-03T06:54:02.786Z,69.0
2023-07-03T06:56:04.507Z,69.0
2023-07-03T06:58:03.555Z,69.0
2023-07-03T07:00:06.154Z,69.0
2023-07-03T07:02:02.643Z,69.0
2023-07-03T07:04:02.876Z,69.0
2023-07-03T07:06:09.471Z,69.0
2023-07-03T07:08:02.459Z,69.0
2023-07-03T07:10:03.782Z,70.0
2023-07-03T07:12:02.698Z,70.0
2023-07-03T07:14:05.371Z,70.0
2023-07-03T07:16:03.221Z,70.0
2023-07-03T07:18:02.805Z,70.0
2023-07-03T07:20:02.594Z,70.0
2023-07-03T07:22:02.520Z,70.0
2023-07-03T07:24:12.021Z,70.0
2023-07-03T07:26:03.342Z,70.0
2023-07-03T07:28:03.616Z,71.0
2023-07-03T07:30:02.820Z,71.0
2023-07-03T07:32:02.531Z,71.0
2023-07-03T07:34:02.530Z,71.0
2023-07-03T07:36:02.518Z,70.0
2023-07-03T07:38:02.864Z,71.0
2023-07-03T07:40:04.604Z,71.0
2023-07-03T07:42:02.701Z,71.0
2023-07-03T07:44:02.815Z,71.0
2023-07-03T07:46:02.561Z,71.0
2023-07-03T07:48:02.661Z,71.0
2023-07-03T07:50:02.525Z,71.0
2023-07-03T07:52:02.726Z,71.0
2023-07-03T07:54:04.432Z,71.0
2023-07-03T07:56:02.455Z,71.0
2023-07-03T07:58:02.776Z,71.0
2023-07-03T08:00:03.733Z,71.0
2023-07-03T08:02:02.736Z,72.0
2023-07-03T08:04:02.695Z,72.0
2023-07-03T08:06:04.621Z,72.0
2023-07-03T08:08:02.456Z,72.0
2023-07-03T08:10:02.681Z,73.0
2023-07-03T08:12:03.193Z,73.0
2023-07-03T08:14:02.522Z,74.0
2023-07-03T08:16:03.808Z,74.0
2023-07-03T08:18:02.677Z,74.0
2023-07-03T08:20:03.313Z,74.0
2023-07-03T08:22:02.429Z,74.0
2023-07-03T08:24:04.834Z,74.0
2023-07-03T08:26:03.596Z,74.0
2023-07-03T08:28:03.318Z,75.0
2023-07-03T08:30:08.611Z,75.0
2023-07-03T08:32:02.648Z,74.0
2023-07-03T08:34:03.303Z,74.0
2023-07-03T08:38:02.895Z,75.0
2023-07-03T08:40:05.660Z,75.0
2023-07-03T08:42:13.571Z,75.0
2023-07-03T08:44:03.571Z,75.0
2023-07-03T08:46:04.679Z,74.0
2023-07-03T08:48:07.416Z,75.0
2023-07-03T08:50:05.192Z,75.0
2023-07-03T08:52:04.526Z,76.0
2023-07-03T08:54:10.585Z,76.0
2023-07-03T08:56:11.837Z,76.0
2023-07-03T08:58:03.253Z,76.0
2023-07-03T09:00:04.398Z,76.0
2023-07-03T09:02:12.504Z,76.0
2023-07-03T09:04:18.402Z,76.0
2023-07-03T09:06:08.674Z,76.0
2023-07-03T09:08:06.664Z,76.0
2023-07-03T09:10:10.405Z,76.0
2023-07-03T09:12:09.366Z,77.0
2023-07-03T09:14:05.308Z,77.0
2023-07-03T09:16:07.655Z,77.0
2023-07-03T09:18:11.060Z,77.0
2023-07-03T09:20:06.524Z,77.0
2023-07-03T09:22:03.816Z,77.0
2023-07-03T09:24:10.769Z,77.0
2023-07-03T09:26:09.651Z,78.0
2023-07-03T09:28:05.779Z,78.0
2023-07-03T09:30:09.974Z,78.0
2023-07-03T09:32:03.215Z,78.0
2023-07-03T09:34:03.216Z,79.0
2023-07-03T09:36:05.746Z,79.0
2023-07-03T09:38:06.137Z,79.0
2023-07-03T09:42:08.135Z,79.0
2023-07-03T09:44:08.080Z,79.0
2023-07-03T09:46:10.856Z,79.0
2023-07-03T09:48:12.284Z,79.0
2023-07-03T09:50:05.069Z,80.0
2023-07-03T09:52:05.687Z,80.0
2023-07-03T09:54:08.640Z,80.0
2023-07-03T09:56:03.051Z,80.0
2023-07-03T09:58:13.110Z,80.0
2023-07-03T10:00:15.638Z,80.0
2023-07-03T10:08:07.410Z,81.0
2023-07-03T10:12:09.711Z,81.0
2023-07-03T10:14:04.831Z,81.0
2023-07-03T10:16:04.078Z,81.0
2023-07-03T10:18:06.695Z,81.0
2023-07-03T10:20:10.392Z,81.0
2023-07-03T10:22:05.420Z,82.0
2023-07-03T10:24:03.416Z,82.0
2023-07-03T10:26:08.069Z,82.0
2023-07-03T10:28:07.437Z,82.0
2023-07-03T10:30:09.830Z,82.0
2023-07-03T10:32:07.427Z,82.0
2023-07-03T10:34:11.623Z,82.0
2023-07-03T10:36:06.972Z,82.0
2023-07-03T10:38:15.442Z,82.0
2023-07-03T10:40:13.066Z,82.0
2023-07-03T10:42:10.469Z,82.0
2023-07-03T10:44:13.915Z,82.0
2023-07-03T10:46:05.563Z,82.0
2023-07-03T10:48:08.469Z,82.0
2023-07-03T10:50:04.782Z,82.0
2023-07-03T10:52:13.094Z,82.0
2023-07-03T10:54:08.112Z,82.0
2023-07-03T10:56:08.279Z,82.0
2023-07-03T10:58:12.685Z,82.0
2023-07-03T11:00:12.867Z,83.0
2023-07-03T11:02:11.806Z,83.0
2023-07-03T11:04:24.758Z,82.0
2023-07-03T11:06:05.775Z,83.0
2023-07-03T11:08:10.211Z,83.0
2023-07-03T11:10:14.512Z,83.0
2023-07-03T11:12:16.093Z,83.0
2023-07-03T11:14:09.290Z,84.0
2023-07-03T11:16:12.773Z,83.0
2023-07-03T11:20:09.471Z,84.0
2023-07-03T11:24:14.773Z,84.0
2023-07-03T11:28:08.242Z,84.0
2023-07-03T11:30:03.677Z,84.0
2023-07-03T11:32:05.016Z,84.0
2023-07-03T11:36:03.288Z,84.0
2023-07-03T11:40:21.998Z,84.0
2023-07-03T11:44:16.825Z,84.0
2023-07-03T11:46:08.687Z,84.0
2023-07-03T11:48:02.572Z,84.0
2023-07-03T11:50:06.566Z,84.0
2023-07-03T11:52:06.044Z,84.0
2023-07-03T11:54:17.738Z,84.0
2023-07-03T11:56:04.429Z,84.0
2023-07-03T11:58:20.681Z,84.0
2023-07-03T12:00:15.357Z,84.0
2023-07-03T12:02:21.549Z,85.0
2023-07-03T12:04:05.973Z,85.0
2023-07-03T12:06:02.554Z,85.0
2023-07-03T12:08:02.556Z,85.0
2023-07-03T12:10:21.828Z,85.0
2023-07-03T12:12:13.447Z,85.0
2023-07-03T12:14:02.519Z,85.0
2023-07-03T12:16:05.398Z,85.0
2023-07-03T12:18:04.569Z,86.0
2023-07-03T12:20:08.316Z,86.0
2023-07-03T12:22:03.000Z,86.0
2023-07-03T12:24:02.665Z,86.0
2023-07-03T12:26:04.080Z,86.0
2023-07-03T12:28:11.281Z,86.0
2023-07-03T12:30:03.423Z,86.0
2023-07-03T12:32:07.281Z,86.0
2023-07-03T12:34:02.484Z,86.0
2023-07-03T12:36:02.647Z,86.0
2023-07-03T12:38:08.294Z,86.0
2023-07-03T12:40:04.941Z,87.0
2023-07-03T12:42:08.354Z,87.0
2023-07-03T12:44:08.809Z,87.0
2023-07-03T12:46:02.419Z,87.0
2023-07-03T12:48:03.917Z,87.0
2023-07-03T12:50:02.619Z,87.0
2023-07-03T12:52:04.396Z,87.0
2023-07-03T12:54:02.466Z,87.0
2023-07-03T12:56:07.752Z,87.0
2023-07-03T12:58:07.175Z,87.0
2023-07-03T13:00:03.110Z,87.0
2023-07-03T13:02:04.444Z,88.0
2023-07-03T13:04:04.519Z,88.0
2023-07-03T13:06:03.616Z,88.0
2023-07-03T13:08:06.781Z,88.0
2023-07-03T13:10:14.295Z,88.0
2023-07-03T13:12:20.249Z,88.0
2023-07-03T13:14:15.039Z,88.0
2023-07-03T13:16:14.586Z,89.0
2023-07-03T13:18:05.772Z,89.0
2023-07-03T13:20:16.737Z,89.0
2023-07-03T13:22:07.517Z,89.0
2023-07-03T13:24:10.296Z,89.0
2023-07-03T13:26:07.829Z,89.0
2023-07-03T13:28:05.823Z,89.0
2023-07-03T13:30:15.489Z,89.0
2023-07-03T13:32:14.078Z,89.0
2023-07-03T13:34:07.792Z,88.0
2023-07-03T13:36:20.541Z,88.0
2023-07-03T13:38:19.058Z,88.0
2023-07-03T13:40:03.895Z,88.0
2023-07-03T13:42:02.429Z,88.0
2023-07-03T13:44:06.241Z,88.0
2023-07-03T13:46:02.510Z,88.0
2023-07-03T13:48:03.129Z,88.0
2023-07-03T13:50:02.793Z,88.0
2023-07-03T13:52:02.643Z,89.0
2023-07-03T13:54:12.225Z,89.0
2023-07-03T13:56:02.732Z,89.0
2023-07-03T13:58:02.561Z,88.0
2023-07-03T14:00:03.184Z,88.0
2023-07-03T14:02:02.711Z,88.0
2023-07-03T14:04:03.972Z,88.0
2023-07-03T14:06:02.523Z,88.0
2023-07-03T14:08:02.731Z,89.0
2023-07-03T14:10:04.066Z,89.0
2023-07-03T14:12:02.444Z,89.0
2023-07-03T14:14:05.028Z,89.0
2023-07-03T14:16:02.759Z,89.0
2023-07-03T14:18:03.431Z,89.0
2023-07-03T14:20:06.079Z,89.0
2023-07-03T14:22:02.672Z,89.0
2023-07-03T14:24:03.093Z,89.0
2023-07-03T14:26:06.099Z,89.0
2023-07-03T14:28:02.553Z,89.0
2023-07-03T14:30:02.439Z,89.0
2023-07-03T14:32:03.048Z,89.0
2023-07-03T14:34:03.466Z,89.0
2023-07-03T14:36:03.256Z,89.0
2023-07-03T14:38:02.668Z,88.0
2023-07-03T14:40:04.216Z,88.0
2023-07-03T14:42:03.079Z,88.0
2023-07-03T14:44:03.432Z,88.0
2023-07-03T14:46:02.548Z,88.0
2023-07-03T14:48:02.479Z,87.0
2023-07-03T14:50:04.034Z,86.0
2023-07-03T14:52:02.465Z,87.0
2023-07-03T14:54:02.658Z,86.0
2023-07-03T14:56:04.140Z,85.0
2023-07-03T14:58:02.451Z,84.0
2023-07-03T15:00:02.957Z,83.0
2023-07-03T15:02:03.098Z,83.0
2023-07-03T15:04:02.629Z,83.0
2023-07-03T15:06:06.545Z,83.0
2023-07-03T15:08:02.666Z,82.0
2023-07-03T15:10:03.485Z,83.0
2023-07-03T15:12:07.990Z,82.0
2023-07-03T15:14:03.903Z,82.0
2023-07-03T15:16:02.448Z,82.0
2023-07-03T15:18:03.468Z,83.0
2023-07-03T15:20:04.614Z,80.0
2023-07-03T15:22:02.438Z,80.0
2023-07-03T15:24:02.998Z,75.0
2023-07-03T15:26:07.666Z,78.0
2023-07-03T15:28:02.751Z,75.0
2023-07-03T15:30:02.670Z,71.0
2023-07-03T15:32:03.259Z,68.0
2023-07-03T15:34:03.154Z,68.0
2023-07-03T15:36:03.056Z,68.0
2023-07-03T15:38:02.747Z,66.0
2023-07-03T15:40:03.256Z,65.0
2023-07-03T15:42:03.221Z,64.0
2023-07-03T15:44:03.050Z,64.0
2023-07-03T15:46:05.673Z,63.0
2023-07-03T15:48:02.440Z,62.0
2023-07-03T15:50:02.635Z,62.0
2023-07-03T15:52:03.093Z,62.0
2023-07-03T15:54:02.711Z,61.0
2023-07-03T15:56:04.864Z,63.0
2023-07-03T15:58:02.583Z,62.0
2023-07-03T16:00:02.711Z,62.0
2023-07-03T16:02:02.669Z,63.0
2023-07-03T16:04:03.366Z,63.0
2023-07-03T16:06:04.683Z,62.0
2023-07-03T16:08:03.232Z,61.0
2023-07-03T16:10:03.100Z,61.0
2023-07-03T16:12:02.446Z,60.0
2023-07-03T16:14:03.094Z,60.0
2023-07-03T16:16:03.599Z,60.0
2023-07-03T16:18:02.439Z,59.0
2023-07-03T16:20:09.615Z,58.0
2023-07-03T16:22:03.091Z,59.0
2023-07-03T16:24:04.648Z,57.0
2023-07-03T16:26:06.782Z,57.0
2023-07-03T16:28:02.483Z,55.0
2023-07-03T16:30:02.467Z,56.0
2023-07-03T16:32:03.343Z,56.0
2023-07-03T16:34:03.324Z,54.0
2023-07-03T16:36:05.824Z,53.0
2023-07-03T16:38:02.732Z,53.0
2023-07-03T16:40:03.507Z,56.0
2023-07-03T16:42:02.485Z,54.0
2023-07-03T16:44:02.957Z,53.0
2023-07-03T16:46:05.494Z,53.0
2023-07-03T16:48:02.607Z,54.0
2023-07-03T16:50:02.670Z,53.0
2023-07-03T16:52:02.855Z,54.0
2023-07-03T16:54:03.329Z,53.0
2023-07-03T16:56:04.261Z,55.0
2023-07-03T16:58:02.473Z,54.0
2023-07-03T17:00:02.878Z,53.0
2023-07-03T17:02:03.382Z,53.0
2023-07-03T17:04:02.542Z,53.0
2023-07-03T17:06:04.830Z,52.0
2023-07-03T17:08:03.406Z,51.0
2023-07-03T17:10:03.284Z,53.0
2023-07-03T17:12:02.461Z,52.0
2023-07-03T17:14:02.754Z,52.0
2023-07-03T17:16:03.077Z,52.0
2023-07-03T17:18:02.830Z,53.0
2023-07-03T17:20:03.833Z,50.0
2023-07-03T17:22:03.463Z,50.0
2023-07-03T17:24:05.282Z,49.0
2023-07-03T17:26:03.773Z,50.0
2023-07-03T17:28:02.482Z,50.0
2023-07-03T17:30:02.927Z,51.0
2023-07-03T17:32:02.720Z,50.0
2023-07-03T17:34:04.223Z,50.0
2023-07-03T17:36:03.011Z,51.0
2023-07-03T17:38:02.773Z,47.0
2023-07-03T17:40:02.497Z,49.0
2023-07-03T17:42:03.684Z,48.0
2023-07-03T17:44:03.214Z,47.0
2023-07-03T17:46:02.441Z,46.0
2023-07-03T17:48:03.744Z,48.0
2023-07-03T17:50:03.862Z,48.0
2023-07-03T17:52:02.484Z,47.0
2023-07-03T17:54:04.119Z,47.0
2023-07-03T17:56:02.696Z,48.0
2023-07-03T17:58:03.528Z,48.0
2023-07-03T18:00:03.262Z,47.0
2023-07-03T18:02:03.309Z,49.0
2023-07-03T18:04:03.159Z,48.0
2023-07-03T18:06:02.985Z,48.0
2023-07-03T18:08:03.625Z,49.0
2023-07-03T18:10:04.087Z,49.0
2023-07-03T18:12:03.306Z,47.0
2023-07-03T18:14:03.107Z,48.0
2023-07-03T18:16:03.753Z,47.0
2023-07-03T18:18:02.770Z,49.0
2023-07-03T18:20:04.391Z,49.0
2023-07-03T18:22:02.464Z,49.0
2023-07-03T18:24:03.320Z,51.0
2023-07-03T18:26:03.072Z,48.0
2023-07-03T18:28:02.701Z,49.0
2023-07-03T18:30:03.415Z,49.0
2023-07-03T18:32:02.719Z,51.0
2023-07-03T18:34:02.806Z,47.0
2023-07-03T18:36:02.728Z,49.0
2023-07-03T18:38:02.559Z,49.0
2023-07-03T18:40:03.343Z,49.0
2023-07-03T18:42:02.734Z,48.0
2023-07-03T18:44:02.877Z,47.0
2023-07-03T18:46:03.158Z,51.0
2023-07-03T18:48:02.747Z,48.0
2023-07-03T18:50:04.012Z,46.0
2023-07-03T18:52:03.180Z,47.0
2023-07-03T18:54:04.015Z,47.0
2023-07-03T18:56:02.581Z,47.0
2023-07-03T18:58:02.445Z,50.0
2023-07-03T19:00:04.617Z,47.0
2023-07-03T19:02:03.147Z,46.0
2023-07-03T19:04:02.772Z,44.0
2023-07-03T19:06:03.228Z,45.0
2023-07-03T19:08:02.733Z,47.0
2023-07-03T19:10:16.991Z,46.0
2023-07-03T19:12:03.064Z,46.0
2023-07-03T19:14:02.656Z,46.0
2023-07-03T19:16:02.542Z,46.0
2023-07-03T19:18:02.683Z,48.0
2023-07-03T19:20:02.622Z,46.0
2023-07-03T19:22:02.825Z,45.0
2023-07-03T19:24:03.681Z,46.0
2023-07-03T19:26:03.202Z,47.0
2023-07-03T19:28:02.623Z,49.0
2023-07-03T19:30:03.061Z,48.0
2023-07-03T19:32:02.652Z,47.0
2023-07-03T19:34:04.519Z,48.0
2023-07-03T19:36:02.552Z,49.0
2023-07-03T19:38:02.940Z,51.0
2023-07-03T19:40:05.255Z,51.0
2023-07-03T19:42:03.011Z,49.0
2023-07-03T19:44:02.962Z,50.0
2023-07-03T19:46:02.497Z,50.0
2023-07-03T19:48:04.469Z,52.0
2023-07-03T19:50:09.729Z,51.0
2023-07-03T19:52:03.397Z,50.0
2023-07-03T19:54:02.690Z,48.0
2023-07-03T19:56:02.582Z,46.0
2023-07-03T19:58:02.533Z,46.0
2023-07-03T20:00:04.880Z,46.0
2023-07-03T20:02:02.665Z,48.0
2023-07-03T20:04:02.642Z,46.0
2023-07-03T20:06:03.362Z,48.0
2023-07-03T20:08:03.060Z,47.0
2023-07-03T20:10:02.900Z,46.0
2023-07-03T20:12:03.341Z,46.0
2023-07-03T20:14:03.238Z,45.0
2023-07-03T20:16:03.928Z,45.0
2023-07-03T20:18:02.674Z,45.0
2023-07-03T20:20:04.640Z,45.0
2023-07-03T20:22:03.052Z,46.0
2023-07-03T20:24:03.298Z,47.0
2023-07-03T20:26:04.058Z,46.0
2023-07-03T20:28:03.524Z,43.0
2023-07-03T20:30:03.361Z,42.0
2023-07-03T20:32:03.298Z,44.0
2023-07-03T20:34:03.046Z,42.0
2023-07-03T20:36:05.485Z,43.0
2023-07-03T20:38:03.450Z,42.0
2023-07-03T20:40:04.918Z,44.0
2023-07-03T20:42:03.051Z,45.0
2023-07-03T20:44:05.247Z,43.0
2023-07-03T20:46:04.759Z,43.0
2023-07-03T20:48:02.700Z,44.0
2023-07-03T20:50:02.873Z,45.0
2023-07-03T20:52:04.612Z,45.0
2023-07-03T20:54:11.421Z,45.0
2023-07-03T20:56:08.727Z,45.0
2023-07-03T20:58:02.959Z,46.0
2023-07-03T21:00:05.449Z,44.0
2023-07-03T21:02:03.078Z,43.0
2023-07-03T21:04:05.394Z,45.0
2023-07-03T21:06:02.748Z,45.0
2023-07-03T21:08:02.478Z,44.0
2023-07-03T21:10:03.234Z,44.0
2023-07-03T21:12:02.482Z,44.0
2023-07-03T21:14:05.942Z,46.0
2023-07-03T21:16:02.975Z,45.0
2023-07-03T21:18:03.296Z,44.0
2023-07-03T21:20:07.508Z,45.0
2023-07-03T21:22:03.026Z,43.0
2023-07-03T21:24:04.881Z,42.0
2023-07-03T21:26:02.781Z,41.0
2023-07-03T21:28:03.083Z,42.0
2023-07-03T21:30:02.846Z,42.0
2023-07-03T21:32:02.849Z,41.0
2023-07-03T21:34:04.091Z,40.0
2023-07-03T21:36:07.733Z,38.0
2023-07-03T21:38:02.701Z,39.0
2023-07-03T21:40:04.442Z,39.0
2023-07-03T21:42:02.916Z,38.0
2023-07-03T21:44:10.632Z,36.0
2023-07-03T21:46:04.120Z,38.0
2023-07-03T21:48:04.081Z,36.0
2023-07-03T21:50:03.079Z,36.0
2023-07-03T21:52:02.444Z,37.0
2023-07-03T21:54:02.822Z,36.0
2023-07-03T21:56:06.528Z,38.0
2023-07-03T21:58:03.562Z,37.0
2023-07-03T22:00:02.596Z,38.0
2023-07-03T22:02:04.801Z,37.0
2023-07-03T22:04:04.861Z,40.0
2023-07-03T22:06:02.695Z,37.0
2023-07-03T22:08:02.716Z,37.0
2023-07-03T22:10:02.480Z,38.0
2023-07-03T22:12:05.489Z,38.0
2023-07-03T22:14:02.960Z,38.0
2023-07-03T22:16:02.739Z,38.0
2023-07-03T22:18:02.769Z,38.0
2023-07-03T22:20:02.512Z,37.0
2023-07-03T22:22:03.408Z,39.0
2023-07-03T22:24:02.876Z,38.0
2023-07-03T22:26:03.910Z,38.0
2023-07-03T22:28:02.634Z,37.0
2023-07-03T22:30:04.150Z,38.0
2023-07-03T22:32:03.271Z,38.0
2023-07-03T22:34:02.654Z,41.0
2023-07-03T22:36:03.058Z,39.0
2023-07-03T22:38:02.929Z,38.0
2023-07-03T22:40:04.252Z,39.0
2023-07-03T22:42:02.757Z,40.0
2023-07-03T22:44:02.476Z,41.0
2023-07-03T22:46:04.002Z,42.0
2023-07-03T22:48:06.142Z,40.0
2023-07-03T22:50:03.832Z,42.0
2023-07-03T22:52:03.056Z,42.0
2023-07-03T22:54:02.654Z,42.0
2023-07-03T22:56:03.024Z,42.0
2023-07-03T22:58:02.998Z,42.0
2023-07-03T23:00:04.901Z,42.0
2023-07-03T23:02:03.481Z,44.0
2023-07-03T23:04:03.190Z,44.0
2023-07-03T23:06:06.527Z,43.0
2023-07-03T23:08:02.856Z,43.0
2023-07-03T23:10:02.603Z,42.0
2023-07-03T23:12:03.872Z,43.0
2023-07-03T23:14:02.676Z,44.0
2023-07-03T23:16:05.457Z,43.0
2023-07-03T23:18:03.351Z,44.0
2023-07-03T23:20:11.270Z,42.0
2023-07-03T23:22:02.432Z,43.0
2023-07-03T23:24:03.167Z,43.0
2023-07-03T23:26:06.403Z,44.0
2023-07-03T23:28:03.151Z,45.0
2023-07-03T23:30:05.133Z,45.0
2023-07-03T23:32:03.371Z,45.0
2023-07-03T23:34:02.543Z,45.0
2023-07-03T23:36:05.488Z,45.0
2023-07-03T23:38:03.291Z,45.0
2023-07-03T23:40:03.342Z,46.0
2023-07-03T23:42:02.642Z,47.0
2023-07-03T23:44:03.086Z,46.0
2023-07-03T23:46:04.305Z,46.0
2023-07-03T23:48:02.659Z,46.0
2023-07-03T23:50:03.824Z,46.0
2023-07-03T23:52:05.046Z,46.0
2023-07-03T23:54:02.642Z,48.0
2023-07-03T23:56:05.992Z,48.0
2023-07-03T23:58:04.701Z,48.0
